createdAt,value
2023-05-11T00:01:06.057Z,8.02
2023-05-11T00:03:33.279Z,8.20
2023-05-11T00:06:00.420Z,8.15
2023-05-11T00:08:27.405Z,7.63
2023-05-11T00:10:54.106Z,6.38
2023-05-11T00:13:20.994Z,6.63
2023-05-11T00:15:47.673Z,7.15
2023-05-11T00:18:14.402Z,8.15
2023-05-11T00:20:41.087Z,8.15
2023-05-11T00:23:07.803Z,8.63
2023-05-11T00:25:34.553Z,9.50
2023-05-11T00:28:01.146Z,8.00
2023-05-11T00:30:27.843Z,9.00
2023-05-11T00:32:54.539Z,8.20
2023-05-11T00:35:21.582Z,8.27
2023-05-11T00:37:48.442Z,8.25
2023-05-11T00:40:15.260Z,8.15
2023-05-11T00:42:42.076Z,7.93
2023-05-11T00:45:08.988Z,8.02
2023-05-11T00:47:35.695Z,7.57
2023-05-11T00:50:02.655Z,8.15
2023-05-11T00:52:30.118Z,7.82
2023-05-11T00:54:56.767Z,8.98
2023-05-11T00:57:23.640Z,7.90
2023-05-11T00:59:50.441Z,8.02
2023-05-11T01:02:17.753Z,7.88
2023-05-11T01:04:44.954Z,8.07
2023-05-11T01:07:23.877Z,7.82
2023-05-11T01:10:13.608Z,7.78
2023-05-11T01:13:01.851Z,7.10
2023-05-11T01:15:45.172Z,7.03
2023-05-11T01:18:21.465Z,7.18
2023-05-11T01:20:49.646Z,7.10
2023-05-11T01:23:25.432Z,7.45
2023-05-11T01:27:03.190Z,6.93
2023-05-11T01:29:47.939Z,5.82
2023-05-11T01:32:26.543Z,8.43
2023-05-11T01:35:01.311Z,8.63
2023-05-11T01:37:28.457Z,7.80
2023-05-11T01:40:01.821Z,8.65
2023-05-11T01:42:45.001Z,6.45
2023-05-11T01:45:13.342Z,6.55
2023-05-11T01:47:41.965Z,7.25
2023-05-11T01:50:09.112Z,6.32
2023-05-11T01:52:37.714Z,7.43
2023-05-11T01:55:06.296Z,7.45
2023-05-11T01:57:33.742Z,7.65
2023-05-11T02:00:01.435Z,7.50
2023-05-11T02:02:29.034Z,8.48
2023-05-11T02:04:55.979Z,9.18
2023-05-11T02:07:23.508Z,9.70
2023-05-11T02:09:50.918Z,10.45
2023-05-11T02:12:19.980Z,9.50
2023-05-11T02:14:47.642Z,9.93
2023-05-11T02:17:15.804Z,10.18
2023-05-11T02:19:43.316Z,10.68
2023-05-11T02:22:10.260Z,11.07
2023-05-11T02:24:37.109Z,11.38
2023-05-11T02:27:04.001Z,11.90
2023-05-11T02:29:30.803Z,11.45
2023-05-11T02:32:08.521Z,8.68
2023-05-11T02:34:43.857Z,9.88
2023-05-11T02:37:13.440Z,11.00
2023-05-11T02:39:41.674Z,10.75
2023-05-11T02:42:14.480Z,10.73
2023-05-11T02:44:45.844Z,10.30
2023-05-11T02:49:40.103Z,11.50
2023-05-11T02:52:07.984Z,11.30
2023-05-11T02:54:35.666Z,11.93
2023-05-11T02:57:03.920Z,10.82
2023-05-11T02:59:31.014Z,12.02
2023-05-11T03:01:58.709Z,12.07
2023-05-11T03:04:25.680Z,11.63
2023-05-11T03:06:52.413Z,10.23
2023-05-11T03:09:19.282Z,11.55
2023-05-11T03:11:46.601Z,10.57
2023-05-11T03:14:13.433Z,10.25
2023-05-11T03:16:41.191Z,9.38
2023-05-11T03:19:08.675Z,9.93
2023-05-11T03:21:37.514Z,9.02
2023-05-11T03:24:06.996Z,9.82
2023-05-11T03:26:34.681Z,10.57
2023-05-11T03:29:01.526Z,9.75
2023-05-11T03:31:28.200Z,11.00
2023-05-11T03:33:55.061Z,11.77
2023-05-11T03:36:23.159Z,11.15
2023-05-11T03:38:52.807Z,10.38
2023-05-11T03:41:20.332Z,11.02
2023-05-11T03:43:51.548Z,11.18
2023-05-11T03:46:20.942Z,10.68
2023-05-11T03:48:48.238Z,11.82
2023-05-11T03:51:15.039Z,10.95
2023-05-11T03:53:41.874Z,10.90
2023-05-11T03:56:08.732Z,10.00
2023-05-11T03:58:40.564Z,10.40
2023-05-11T04:01:08.541Z,10.60
2023-05-11T04:03:56.272Z,11.32
2023-05-11T04:06:23.147Z,11.45
2023-05-11T04:08:50.526Z,10.77
2023-05-11T04:11:17.158Z,11.05
2023-05-11T04:13:43.879Z,11.57
2023-05-11T04:16:10.818Z,11.88
2023-05-11T04:18:37.606Z,11.23
2023-05-11T04:21:06.225Z,11.15
2023-05-11T04:23:32.953Z,10.60
2023-05-11T04:25:59.750Z,11.43
2023-05-11T04:28:28.176Z,12.82
2023-05-11T04:30:55.547Z,10.27
2023-05-11T04:33:22.798Z,10.88
2023-05-11T04:35:54.378Z,12.20
2023-05-11T04:38:22.323Z,11.55
2023-05-11T04:40:50.784Z,9.70
2023-05-11T04:43:19.567Z,10.50
2023-05-11T04:45:52.244Z,10.30
2023-05-11T04:48:20.710Z,9.75
2023-05-11T04:50:47.936Z,11.52
2023-05-11T04:53:14.701Z,10.93
2023-05-11T04:55:41.467Z,12.35
2023-05-11T04:58:08.134Z,11.55
2023-05-11T05:00:36.642Z,11.88
2023-05-11T05:03:03.594Z,13.23
2023-05-11T05:05:30.422Z,12.20
2023-05-11T05:07:57.118Z,12.75
2023-05-11T05:10:23.820Z,11.70
2023-05-11T05:12:50.539Z,12.27
2023-05-11T05:15:17.248Z,11.43
2023-05-11T05:17:43.968Z,12.25
2023-05-11T05:20:10.917Z,11.13
2023-05-11T05:22:37.667Z,12.75
2023-05-11T05:25:04.642Z,13.15
2023-05-11T05:27:34.784Z,13.80
2023-05-11T05:30:01.832Z,12.85
2023-05-11T05:32:29.020Z,13.25
2023-05-11T05:34:55.764Z,13.13
2023-05-11T05:37:22.445Z,13.23
2023-05-11T05:39:49.251Z,13.15
2023-05-11T05:42:16.066Z,12.48
2023-05-11T05:44:42.769Z,12.85
2023-05-11T05:47:09.483Z,12.23
2023-05-11T05:49:36.240Z,11.80
2023-05-11T05:52:02.943Z,12.32
2023-05-11T05:54:29.611Z,11.73
2023-05-11T05:56:56.388Z,12.82
2023-05-11T05:59:24.429Z,12.25
2023-05-11T06:01:51.744Z,12.10
2023-05-11T06:04:18.844Z,12.50
2023-05-11T06:06:46.616Z,12.20
2023-05-11T06:09:13.780Z,13.50
2023-05-11T06:11:41.261Z,12.00
2023-05-11T06:14:07.951Z,12.15
2023-05-11T06:16:34.724Z,11.57
2023-05-11T06:19:01.525Z,13.80
2023-05-11T06:21:30.765Z,12.32
2023-05-11T06:23:57.553Z,14.95
2023-05-11T06:26:25.388Z,14.93
2023-05-11T06:28:52.800Z,13.52
2023-05-11T06:31:19.795Z,13.70
2023-05-11T06:33:46.558Z,14.70
2023-05-11T06:36:13.247Z,14.77
2023-05-11T06:38:39.946Z,13.55
2023-05-11T06:41:07.578Z,14.40
2023-05-11T06:43:34.341Z,14.82
2023-05-11T06:46:01.066Z,15.43
2023-05-11T06:48:30.094Z,14.18
2023-05-11T06:50:57.039Z,14.13
2023-05-11T06:53:23.814Z,14.45
2023-05-11T06:55:50.544Z,13.50
2023-05-11T06:58:20.720Z,13.60
2023-05-11T07:00:47.455Z,14.80
2023-05-11T07:03:14.221Z,14.43
2023-05-11T07:05:41.150Z,14.00
2023-05-11T07:08:08.081Z,14.40
2023-05-11T07:10:34.768Z,13.85
2023-05-11T07:13:01.437Z,14.30
2023-05-11T07:15:28.172Z,14.40
2023-05-11T07:17:54.970Z,14.85
2023-05-11T07:20:21.771Z,13.40
2023-05-11T07:22:48.631Z,13.60
2023-05-11T07:25:15.488Z,14.07
2023-05-11T07:27:42.437Z,13.70
2023-05-11T07:30:09.594Z,14.20
2023-05-11T07:32:36.339Z,12.88
2023-05-11T07:35:03.100Z,12.40
2023-05-11T07:37:29.873Z,12.25
2023-05-11T07:39:56.745Z,12.65
2023-05-11T07:42:23.472Z,11.13
2023-05-11T07:44:50.240Z,12.02
2023-05-11T07:47:19.108Z,11.43
2023-05-11T07:49:47.507Z,10.98
2023-05-11T07:52:14.634Z,11.07
2023-05-11T07:54:41.501Z,11.20
2023-05-11T07:57:08.498Z,10.15
2023-05-11T07:59:36.125Z,10.77
2023-05-11T08:02:04.307Z,10.80
2023-05-11T08:04:31.149Z,11.13
2023-05-11T08:06:58.501Z,10.80
2023-05-11T08:09:25.328Z,11.90
2023-05-11T08:11:53.333Z,10.30
2023-05-11T08:14:21.363Z,10.63
2023-05-11T08:16:49.793Z,10.93
2023-05-11T08:19:16.747Z,9.57
2023-05-11T08:21:44.427Z,9.77
2023-05-11T08:24:11.144Z,9.60
2023-05-11T08:26:38.228Z,9.98
2023-05-11T08:29:05.173Z,10.43
2023-05-11T08:31:32.190Z,11.15
2023-05-11T08:33:59.169Z,13.00
2023-05-11T08:36:26.375Z,11.20
2023-05-11T08:38:57.050Z,10.50
2023-05-11T08:41:26.034Z,10.25
2023-05-11T08:43:53.139Z,10.25
2023-05-11T08:46:22.989Z,9.43
2023-05-11T08:48:50.854Z,9.93
2023-05-11T08:51:17.957Z,9.63
2023-05-11T08:53:45.647Z,8.57
2023-05-11T08:56:12.692Z,9.35
2023-05-11T08:58:40.131Z,8.57
2023-05-11T09:01:07.849Z,8.60
2023-05-11T09:03:37.217Z,9.45
2023-05-11T09:06:07.546Z,9.90
2023-05-11T09:08:38.595Z,8.63
2023-05-11T09:11:06.761Z,8.80
2023-05-11T09:13:34.232Z,7.55
2023-05-11T09:16:01.202Z,7.75
2023-05-11T09:18:28.216Z,7.95
2023-05-11T09:20:55.280Z,7.88
2023-05-11T09:23:27.001Z,8.30
2023-05-11T09:25:54.209Z,7.95
2023-05-11T09:28:25.904Z,7.80
2023-05-11T09:30:53.905Z,7.88
2023-05-11T09:33:25.026Z,7.22
2023-05-11T09:35:52.146Z,7.57
2023-05-11T09:38:23.266Z,6.60
2023-05-11T09:40:52.434Z,6.85
2023-05-11T09:43:24.963Z,6.57
2023-05-11T09:45:54.091Z,7.20
2023-05-11T09:48:21.225Z,6.88
2023-05-11T09:50:49.456Z,6.70
2023-05-11T09:53:17.244Z,6.47
2023-05-11T09:55:55.605Z,5.80
2023-05-11T09:58:23.195Z,6.20
2023-05-11T10:00:56.726Z,7.45
2023-05-11T10:03:25.864Z,5.38
2023-05-11T10:06:01.132Z,5.80
2023-05-11T10:08:30.543Z,5.65
2023-05-11T10:10:57.858Z,5.22
2023-05-11T10:13:29.657Z,4.95
2023-05-11T10:15:58.541Z,5.10
2023-05-11T10:18:25.773Z,5.60
2023-05-11T10:20:53.590Z,4.90
2023-05-11T10:23:21.270Z,5.65
2023-05-11T10:25:48.711Z,4.80
2023-05-11T10:28:15.734Z,5.00
2023-05-11T10:30:43.240Z,4.90
2023-05-11T10:33:11.249Z,4.80
2023-05-11T10:35:39.393Z,4.18
2023-05-11T10:38:10.377Z,4.63
2023-05-11T10:40:39.225Z,4.03
2023-05-11T10:43:06.690Z,4.47
2023-05-11T10:45:42.471Z,3.97
2023-05-11T10:48:41.649Z,3.47
2023-05-11T10:51:34.096Z,3.63
2023-05-11T10:54:03.733Z,3.70
2023-05-11T10:57:07.981Z,3.90
2023-05-11T10:59:43.655Z,3.70
2023-05-11T11:02:10.873Z,3.88
2023-05-11T11:04:49.757Z,4.13
2023-05-11T11:07:20.131Z,3.90
2023-05-11T11:10:13.116Z,3.78
2023-05-11T11:12:41.118Z,3.85
2023-05-11T11:15:09.230Z,3.22
2023-05-11T11:17:36.723Z,3.50
2023-05-11T11:20:07.797Z,3.80
2023-05-11T11:25:08.832Z,2.58
2023-05-11T11:27:41.623Z,2.75
2023-05-11T11:30:22.834Z,2.50
2023-05-11T11:35:42.291Z,3.40
2023-05-11T11:38:14.426Z,2.83
2023-05-11T11:40:53.994Z,3.90
2023-05-11T11:43:25.535Z,3.60
2023-05-11T11:45:52.539Z,3.38
2023-05-11T11:48:41.675Z,3.63
2023-05-11T11:51:10.502Z,3.50
2023-05-11T11:53:46.290Z,3.70
2023-05-11T11:56:15.918Z,3.63
2023-05-11T11:58:42.733Z,3.40
2023-05-11T12:01:11.897Z,3.58
2023-05-11T12:03:39.749Z,3.80
2023-05-11T12:06:08.052Z,3.53
2023-05-11T12:08:35.973Z,3.67
2023-05-11T12:11:04.167Z,3.60
2023-05-11T12:13:31.124Z,4.00
2023-05-11T12:16:17.515Z,3.20
2023-05-11T12:19:01.040Z,3.83
2023-05-11T12:21:31.770Z,4.82
2023-05-11T12:24:00.870Z,4.10
2023-05-11T12:26:28.927Z,4.63
2023-05-11T12:29:15.114Z,5.10
2023-05-11T12:31:43.279Z,5.05
2023-05-11T12:34:17.563Z,4.53
2023-05-11T12:36:49.236Z,4.75
2023-05-11T12:39:23.068Z,5.93
2023-05-11T12:41:51.077Z,5.25
2023-05-11T12:44:18.736Z,4.72
2023-05-11T12:46:49.750Z,5.18
2023-05-11T12:51:51.138Z,4.32
2023-05-11T12:54:51.693Z,5.63
2023-05-11T12:57:29.974Z,5.45
2023-05-11T13:00:08.194Z,5.53
2023-05-11T13:02:35.099Z,6.28
2023-05-11T13:05:12.088Z,7.07
2023-05-11T13:07:38.947Z,6.97
2023-05-11T13:10:06.113Z,7.43
2023-05-11T13:12:34.320Z,8.20
2023-05-11T13:15:05.782Z,7.75
2023-05-11T13:17:33.897Z,7.78
2023-05-11T13:20:23.794Z,7.50
2023-05-11T13:22:51.461Z,5.90
2023-05-11T13:25:21.698Z,6.03
2023-05-11T13:27:48.596Z,6.13
2023-05-11T13:30:15.435Z,5.88
2023-05-11T13:32:42.178Z,5.95
2023-05-11T13:35:09.248Z,5.80
2023-05-11T13:37:35.942Z,6.15
2023-05-11T13:40:02.643Z,7.05
2023-05-11T13:42:29.549Z,6.15
2023-05-11T13:44:56.439Z,7.03
2023-05-11T13:47:23.243Z,6.72
2023-05-11T13:49:50.057Z,7.47
2023-05-11T13:52:16.684Z,7.50
2023-05-11T13:54:43.293Z,8.57
2023-05-11T13:57:10.176Z,7.57
2023-05-11T13:59:37.004Z,7.10
2023-05-11T14:02:03.858Z,8.10
2023-05-11T14:04:30.651Z,8.18
2023-05-11T14:06:57.617Z,7.55
2023-05-11T14:09:24.276Z,7.32
2023-05-11T14:11:50.975Z,7.45
2023-05-11T14:14:17.696Z,7.70
2023-05-11T14:16:44.648Z,7.18
2023-05-11T14:19:11.545Z,7.90
2023-05-11T14:21:38.312Z,7.07
2023-05-11T14:24:12.198Z,7.47
2023-05-11T14:26:39.498Z,7.85
2023-05-11T14:29:06.076Z,8.27
2023-05-11T14:31:34.856Z,7.90
2023-05-11T14:34:01.720Z,7.75
2023-05-11T14:36:28.408Z,7.88
2023-05-11T14:38:55.058Z,8.07
2023-05-11T14:41:21.782Z,7.05
2023-05-11T14:43:49.445Z,8.77
2023-05-11T14:46:16.894Z,9.20
2023-05-11T14:48:43.810Z,9.15
2023-05-11T14:51:10.475Z,9.15
2023-05-11T14:53:37.131Z,10.13
2023-05-11T14:56:03.877Z,9.82
2023-05-11T14:58:30.604Z,9.50
2023-05-11T15:00:57.217Z,10.32
2023-05-11T15:03:25.205Z,9.93
2023-05-11T15:05:51.983Z,10.13
2023-05-11T15:08:29.120Z,10.57
2023-05-11T15:10:57.100Z,10.98
2023-05-11T15:13:24.230Z,11.18
2023-05-11T15:15:51.582Z,10.60
2023-05-11T15:18:20.942Z,8.70
2023-05-11T15:20:47.604Z,9.88
2023-05-11T15:23:17.477Z,8.77
2023-05-11T15:25:44.925Z,8.48
2023-05-11T15:28:11.973Z,9.98
2023-05-11T15:30:38.747Z,10.82
2023-05-11T15:33:05.574Z,10.18
2023-05-11T15:35:34.781Z,8.82
2023-05-11T15:38:01.529Z,8.75
2023-05-11T15:40:29.325Z,8.38
2023-05-11T15:42:58.476Z,8.32
2023-05-11T15:45:25.703Z,9.00
2023-05-11T15:47:52.364Z,8.32
2023-05-11T15:50:19.444Z,9.43
2023-05-11T15:52:46.212Z,9.10
2023-05-11T15:55:12.795Z,8.80
2023-05-11T15:57:39.379Z,7.82
2023-05-11T16:00:06.729Z,8.82
2023-05-11T16:02:34.650Z,7.35
2023-05-11T16:05:01.421Z,7.32
2023-05-11T16:07:28.609Z,7.97
2023-05-11T16:09:55.477Z,7.82
2023-05-11T16:12:22.073Z,8.10
2023-05-11T16:14:48.716Z,6.30
2023-05-11T16:17:15.379Z,6.35
2023-05-11T16:19:42.116Z,6.25
2023-05-11T16:22:08.727Z,5.97
2023-05-11T16:24:35.389Z,5.00
2023-05-11T16:27:02.090Z,5.40
2023-05-11T16:29:28.725Z,5.95
2023-05-11T16:31:56.619Z,4.90
2023-05-11T16:34:23.279Z,4.82
2023-05-11T16:36:49.919Z,5.07
2023-05-11T16:39:16.564Z,4.93
2023-05-11T16:41:43.524Z,5.53
2023-05-11T16:44:10.154Z,5.35
2023-05-11T16:46:36.908Z,5.68
2023-05-11T16:49:03.588Z,5.30
2023-05-11T16:51:30.368Z,5.75
2023-05-11T16:53:57.376Z,5.43
2023-05-11T16:56:24.161Z,5.40
2023-05-11T16:58:50.772Z,6.25
2023-05-11T17:01:17.528Z,6.25
2023-05-11T17:03:44.307Z,6.20
2023-05-11T17:06:13.704Z,5.88
2023-05-11T17:08:40.761Z,5.35
2023-05-11T17:11:07.642Z,5.25
2023-05-11T17:13:34.337Z,5.90
2023-05-11T17:16:01.106Z,5.03
2023-05-11T17:18:28.120Z,5.30
2023-05-11T17:20:55.169Z,6.07
2023-05-11T17:23:23.150Z,5.68
2023-05-11T17:25:49.874Z,6.90
2023-05-11T17:28:16.628Z,6.10
2023-05-11T17:30:48.853Z,5.68
2023-05-11T17:33:16.426Z,6.65
2023-05-11T17:35:43.381Z,6.22
2023-05-11T17:38:10.265Z,5.90
2023-05-11T17:40:36.956Z,5.68
2023-05-11T17:43:03.649Z,5.45
2023-05-11T17:45:30.395Z,5.85
2023-05-11T17:47:57.318Z,5.00
2023-05-11T17:50:24.115Z,5.45
2023-05-11T17:52:51.358Z,5.68
2023-05-11T17:55:18.556Z,5.18
2023-05-11T17:57:45.419Z,4.65
2023-05-11T18:00:12.661Z,4.47
2023-05-11T18:02:39.529Z,4.28
2023-05-11T18:05:07.131Z,4.78
2023-05-11T18:07:33.995Z,5.15
2023-05-11T18:10:00.664Z,4.65
2023-05-11T18:12:27.757Z,5.35
2023-05-11T18:14:54.463Z,5.82
2023-05-11T18:17:21.973Z,5.80
2023-05-11T18:19:48.692Z,6.95
2023-05-11T18:22:15.285Z,6.78
2023-05-11T18:24:42.110Z,7.28
2023-05-11T18:27:08.731Z,6.28
2023-05-11T18:29:37.405Z,7.03
2023-05-11T18:32:04.279Z,6.95
2023-05-11T18:34:31.010Z,6.60
2023-05-11T18:36:57.669Z,5.93
2023-05-11T18:39:24.336Z,6.00
2023-05-11T18:41:51.152Z,7.03
2023-05-11T18:44:19.306Z,6.88
2023-05-11T18:46:46.107Z,8.40
2023-05-11T18:49:13.050Z,8.50
2023-05-11T18:51:39.822Z,8.60
2023-05-11T18:54:06.728Z,7.53
2023-05-11T18:56:33.475Z,8.52
2023-05-11T18:59:00.220Z,7.40
2023-05-11T19:01:39.883Z,7.53
2023-05-11T19:04:14.349Z,6.30
2023-05-11T19:06:41.119Z,7.10
2023-05-11T19:09:07.730Z,6.65
2023-05-11T19:11:35.490Z,5.40
2023-05-11T19:14:02.657Z,5.15
2023-05-11T19:16:32.592Z,5.63
2023-05-11T19:18:59.689Z,6.68
2023-05-11T19:21:26.498Z,5.75
2023-05-11T19:23:53.153Z,6.28
2023-05-11T19:26:19.789Z,6.15
2023-05-11T19:28:46.378Z,5.57
2023-05-11T19:31:13.465Z,5.80
2023-05-11T19:33:40.186Z,5.75
2023-05-11T19:36:07.344Z,6.45
2023-05-11T19:38:35.992Z,5.65
2023-05-11T19:41:03.211Z,5.90
2023-05-11T19:43:29.795Z,5.40
2023-05-11T19:45:56.440Z,5.15
2023-05-11T19:48:23.399Z,5.40
2023-05-11T19:50:50.105Z,5.10
2023-05-11T19:53:16.799Z,5.63
2023-05-11T19:55:45.397Z,4.60
2023-05-11T19:58:14.075Z,4.95
2023-05-11T20:00:43.585Z,4.70
2023-05-11T20:03:10.524Z,5.95
2023-05-11T20:05:37.344Z,5.50
2023-05-11T20:08:06.149Z,4.82
2023-05-11T20:10:32.822Z,4.13
2023-05-11T20:13:02.527Z,4.18
2023-05-11T20:15:29.198Z,4.32
2023-05-11T20:17:55.964Z,3.55
2023-05-11T20:20:22.803Z,3.75
2023-05-11T20:22:49.478Z,3.90
2023-05-11T20:25:18.783Z,4.10
2023-05-11T20:27:46.224Z,4.05
2023-05-11T20:30:13.297Z,4.28
2023-05-11T20:34:06.587Z,4.55
2023-05-11T20:35:26.849Z,4.72
2023-05-11T20:37:53.551Z,5.20
2023-05-11T20:40:20.574Z,4.90
2023-05-11T20:42:47.374Z,4.68
2023-05-11T20:45:14.075Z,5.10
2023-05-11T20:47:40.787Z,4.72
2023-05-11T20:50:09.337Z,4.90
2023-05-11T20:52:36.442Z,5.45
2023-05-11T20:55:03.932Z,4.85
2023-05-11T20:57:30.580Z,5.22
2023-05-11T21:02:27.105Z,4.47
2023-05-11T21:04:54.186Z,4.13
2023-05-11T21:07:23.053Z,3.75
2023-05-11T21:09:49.695Z,3.88
2023-05-11T21:12:16.399Z,3.95
2023-05-11T21:14:43.057Z,3.67
2023-05-11T21:17:09.868Z,3.90
2023-05-11T21:19:36.696Z,3.90
2023-05-11T21:22:03.359Z,3.70
2023-05-11T21:24:29.964Z,3.50
2023-05-11T21:26:56.618Z,3.63
2023-05-11T21:29:23.221Z,3.40
2023-05-11T21:31:50.051Z,3.50
2023-05-11T21:34:17.364Z,3.58
2023-05-11T21:36:45.683Z,3.95
2023-05-11T21:39:13.314Z,4.50
2023-05-11T21:41:40.000Z,4.20
2023-05-11T21:44:06.694Z,3.97
2023-05-11T21:46:33.489Z,3.45
2023-05-11T21:49:00.128Z,4.00
2023-05-11T21:51:26.862Z,4.07
2023-05-11T21:53:53.557Z,4.00
2023-05-11T21:56:20.255Z,3.78
2023-05-11T21:58:46.952Z,4.07
2023-05-11T22:01:13.967Z,4.57
2023-05-11T22:03:40.646Z,4.40
2023-05-11T22:06:07.652Z,3.80
2023-05-11T22:08:34.340Z,4.40
2023-05-11T22:11:01.055Z,4.30
2023-05-11T22:13:28.157Z,4.20
2023-05-11T22:15:57.796Z,4.20
2023-05-11T22:18:24.574Z,4.40
2023-05-11T22:20:51.346Z,3.65
2023-05-11T22:23:18.045Z,3.60
2023-05-11T22:25:44.722Z,4.28
2023-05-11T22:28:11.542Z,4.00
2023-05-11T22:30:38.288Z,3.40
2023-05-11T22:33:04.922Z,3.40
2023-05-11T22:35:31.696Z,3.88
2023-05-11T22:37:58.468Z,2.92
2023-05-11T22:40:25.427Z,2.88
2023-05-11T22:42:52.127Z,3.15
2023-05-11T22:45:18.923Z,2.60
2023-05-11T22:47:45.712Z,2.90
2023-05-11T22:50:12.350Z,2.88
2023-05-11T22:52:39.377Z,5.18
2023-05-11T22:55:06.683Z,1.83
2023-05-11T22:57:33.412Z,2.03
2023-05-11T23:00:00.115Z,1.58
2023-05-11T23:02:26.830Z,1.10
2023-05-11T23:04:53.834Z,0.80
2023-05-11T23:07:20.890Z,1.10
2023-05-11T23:09:47.823Z,0.82
2023-05-11T23:12:14.450Z,1.02
2023-05-11T23:14:41.958Z,0.90
2023-05-11T23:17:08.792Z,0.95
2023-05-11T23:19:35.498Z,1.25
2023-05-11T23:22:02.391Z,2.08
2023-05-11T23:24:29.082Z,1.42
2023-05-11T23:26:56.122Z,1.02
2023-05-11T23:29:23.010Z,1.60
2023-05-11T23:31:51.084Z,1.50
2023-05-11T23:34:18.522Z,1.27
2023-05-11T23:36:45.285Z,1.10
2023-05-11T23:39:12.273Z,1.00
2023-05-11T23:41:39.032Z,1.20
2023-05-11T23:44:05.777Z,1.30
2023-05-11T23:46:32.737Z,0.90
2023-05-11T23:48:59.432Z,1.30
2023-05-11T23:51:26.317Z,1.05
2023-05-11T23:53:53.041Z,1.85
2023-05-11T23:56:19.820Z,2.88
2023-05-11T23:58:46.534Z,2.42
